KLHM/LHM METAR and TAF weather

Enter ICAO airport designator
Station Type Date Time Source
KLHM METAR 2022/08/13 12:55 UTC NOAA

KLHM 131255Z AUTO 00000KT 10SM CLR 11/08 A2996 RMK AO1


Station Type Date Time Source
KLHM Decoded METAR 2022/08/13 12:55 UTC NOAA

Station name not available
Aug 13, 2022 - 08:55 AM EDT / 2022.08.13 1255 UTC
Wind: Calm:0
Visibility: 10 mile(s):0
Sky conditions: clear
Temperature: 51 F (11 C)
Dew Point: 46 F (8 C)
Relative Humidity: 81%
Pressure (altimeter): 29.96 in. Hg (1014 hPa)
ob: KLHM 131255Z AUTO 00000KT 10SM CLR 11/08 A2996 RMK AO1
cycle: 13

Station Type Date Time Source
KLHM TAF UTC NOAA

Error!

Example: see airport list